الصفحة الرئيسية
METAR-TAF:

METAR-TAF

مطار :

مانيلا, الفلبين

مطار نينوي أكوينو الدولي

دائرة عرض: 14-31N, خط طول: 121-00E, ارتفاع: 14 متر

مراقبة الطقس الحالي

تاريخ ووقت الإصدار 50 دقيقة قبل الساعة 23:00UTC
ريح 1 عقدةمن اتجاهات متغيرة
درجة الحرارة 25°درجة مئوية
الرطوبة 94%
ضغط 1009 hPa
الرؤية 10 كم أو أكثر
غيوم قليلة على ارتفاع 2500 قدم

METAR: RPLL 232300Z VRB01KT 9999 FEW025 25/24 Q1009 NOSIG RMK A2980

زمن: 07:50 (23:50 UTC)

توقعات

تاريخ ووقت الإصدار 50 دقيقة قبل الساعة 23:00UTC
التوقعات صالحة من24 الساعة 00 UTC إلى 25 الساعة 06 UTC
ريح 6 عقدة من الشرق/الشمال الشرقي
الرؤية 10 كم أو أكثر
غيوم قليلة على ارتفاع 2300 قدم
غيوم متفرقة على ارتفاع 25000 قدم
مؤقت
من 24 الساعة 00 UTC إلى 24 الساعة 06 UTC
ريح 10 عقدة من الشرق/الشمال الشرقي
مؤقت
من 24 الساعة 06 UTC إلى 24 الساعة 12 UTC
ريح 10 عقدة من الشرق/الشمال الشرقي
غيوم متفرقة على ارتفاع 2300 قدم
غيوم متفرقة على ارتفاع 10000 قدم

TAF: RPLL 232300Z 2400/2506 06006KT 9999 FEW023 SCT250 TX32/2406Z TN24/2422Z TEMPO 2400/2406 07010KT TEMPO 2406/2412 06010KT SCT023 SCT100

أرصاد الطقس والتوقعات من أكثر من 4000 مطار (تقارير الطقس للمطار METAR والتنبؤ بالطقس بالمطارTAF).

المحطات المتاحة هي النقط الصفراء والحمراء على الخريطة.

حرك المؤشر فوق النقطة لمعرفة اسم المحطة.

ثم انقر لمعرفة أرصاد وتوقعات الطقس.

لتغيير الخارطة: اضغط على الأزرار الخضراء مع رمز الصليب الأسود للتكبير. على الزر الأخضر مع شرطة للتصغير، أو على الأسهم الخضراء للخرائط المجاورة.


METAR-TAF: